sensor_id;sensor_type;location;lat;lon;timestamp;P1;durP1;ratioP1;P2;durP2;ratioP2
75922;SDS011;64602;47.542;19.090;2023-03-20T14:41:19;12.05;;;7.15;;
75922;SDS011;64602;47.542;19.090;2023-03-20T14:51:44;11.07;;;6.77;;
75922;SDS011;64602;47.542;19.090;2023-03-20T14:56:49;12.80;;;7.00;;
75922;SDS011;64602;47.542;19.090;2023-03-20T15:01:54;13.60;;;7.18;;
75922;SDS011;64602;47.542;19.090;2023-03-20T15:07:01;10.73;;;7.10;;
75922;SDS011;64602;47.542;19.090;2023-03-20T15:12:04;9.88;;;6.47;;
75922;SDS011;64602;47.542;19.090;2023-03-20T15:17:14;11.60;;;6.43;;
75922;SDS011;64602;47.542;19.090;2023-03-20T15:22:22;12.30;;;6.40;;
75922;SDS011;64602;47.542;19.090;2023-03-20T15:27:24;11.73;;;6.47;;
75922;SDS011;64602;47.542;19.090;2023-03-20T15:32:31;9.70;;;5.90;;
75922;SDS011;64602;47.542;19.090;2023-03-20T15:37:34;10.17;;;5.97;;
75922;SDS011;64602;47.542;19.090;2023-03-20T15:42:37;9.50;;;5.90;;
75922;SDS011;64602;47.542;19.090;2023-03-20T15:47:41;10.50;;;6.03;;
75922;SDS011;64602;47.542;19.090;2023-03-20T15:52:44;8.60;;;5.60;;
75922;SDS011;64602;47.542;19.090;2023-03-20T15:57:55;11.50;;;5.30;;
75922;SDS011;64602;47.542;19.090;2023-03-20T16:03:03;8.52;;;5.72;;
75922;SDS011;64602;47.542;19.090;2023-03-20T16:08:12;7.72;;;5.10;;
75922;SDS011;64602;47.542;19.090;2023-03-20T16:13:25;8.53;;;5.20;;
75922;SDS011;64602;47.542;19.090;2023-03-20T16:18:33;9.48;;;5.53;;
75922;SDS011;64602;47.542;19.090;2023-03-20T16:23:39;9.32;;;5.75;;
75922;SDS011;64602;47.542;19.090;2023-03-20T16:28:45;7.63;;;4.80;;
75922;SDS011;64602;47.542;19.090;2023-03-20T16:33:50;8.80;;;5.40;;
75922;SDS011;64602;47.542;19.090;2023-03-20T16:38:54;10.07;;;5.60;;
75922;SDS011;64602;47.542;19.090;2023-03-20T16:54:33;8.73;;;5.82;;
75922;SDS011;64602;47.542;19.090;2023-03-20T16:59:37;10.65;;;5.70;;
75922;SDS011;64602;47.542;19.090;2023-03-20T17:04:47;11.47;;;6.00;;
75922;SDS011;64602;47.542;19.090;2023-03-20T17:09:57;8.07;;;5.57;;
75922;SDS011;64602;47.542;19.090;2023-03-20T17:15:18;9.52;;;5.65;;
75922;SDS011;64602;47.542;19.090;2023-03-20T17:20:25;12.63;;;6.47;;
75922;SDS011;64602;47.542;19.090;2023-03-20T17:25:28;11.47;;;6.40;;
75922;SDS011;64602;47.542;19.090;2023-03-20T17:30:31;10.30;;;6.28;;
75922;SDS011;64602;47.542;19.090;2023-03-20T17:35:33;10.32;;;5.85;;
75922;SDS011;64602;47.542;19.090;2023-03-20T17:40:35;14.47;;;6.10;;
75922;SDS011;64602;47.542;19.090;2023-03-20T17:45:37;9.80;;;5.78;;
75922;SDS011;64602;47.542;19.090;2023-03-20T17:50:41;8.60;;;5.50;;
75922;SDS011;64602;47.542;19.090;2023-03-20T17:55:44;12.27;;;6.63;;
75922;SDS011;64602;47.542;19.090;2023-03-20T18:00:47;9.68;;;5.50;;
75922;SDS011;64602;47.542;19.090;2023-03-20T18:05:51;10.88;;;5.85;;
75922;SDS011;64602;47.542;19.090;2023-03-20T18:10:53;8.70;;;5.00;;
75922;SDS011;64602;47.542;19.090;2023-03-20T18:15:56;10.07;;;5.67;;
75922;SDS011;64602;47.542;19.090;2023-03-20T18:20:59;9.88;;;5.95;;
75922;SDS011;64602;47.542;19.090;2023-03-20T18:26:01;9.68;;;5.82;;
75922;SDS011;64602;47.542;19.090;2023-03-20T18:31:03;10.23;;;5.93;;
75922;SDS011;64602;47.542;19.090;2023-03-20T18:36:08;12.68;;;6.07;;
75922;SDS011;64602;47.542;19.090;2023-03-20T18:41:15;9.43;;;5.50;;
75922;SDS011;64602;47.542;19.090;2023-03-20T18:46:19;12.23;;;6.53;;
75922;SDS011;64602;47.542;19.090;2023-03-20T18:51:23;11.68;;;6.40;;
75922;SDS011;64602;47.542;19.090;2023-03-20T18:56:25;11.57;;;6.50;;
75922;SDS011;64602;47.542;19.090;2023-03-20T19:01:29;12.87;;;7.03;;
75922;SDS011;64602;47.542;19.090;2023-03-20T19:06:31;10.43;;;7.40;;
75922;SDS011;64602;47.542;19.090;2023-03-20T19:11:33;11.48;;;6.78;;
75922;SDS011;64602;47.542;19.090;2023-03-20T19:16:35;9.80;;;6.37;;
75922;SDS011;64602;47.542;19.090;2023-03-20T19:21:38;10.73;;;6.53;;
75922;SDS011;64602;47.542;19.090;2023-03-20T19:26:41;25.92;;;11.63;;
75922;SDS011;64602;47.542;19.090;2023-03-20T19:31:43;23.60;;;10.63;;
75922;SDS011;64602;47.542;19.090;2023-03-20T19:36:45;16.77;;;7.60;;
75922;SDS011;64602;47.542;19.090;2023-03-20T19:41:50;8.75;;;5.62;;
75922;SDS011;64602;47.542;19.090;2023-03-20T19:46:53;9.73;;;6.45;;
75922;SDS011;64602;47.542;19.090;2023-03-20T19:51:57;10.60;;;6.60;;
75922;SDS011;64602;47.542;19.090;2023-03-20T19:56:59;9.37;;;6.27;;
75922;SDS011;64602;47.542;19.090;2023-03-20T20:02:01;9.70;;;6.78;;
75922;SDS011;64602;47.542;19.090;2023-03-20T20:07:03;11.07;;;6.50;;
75922;SDS011;64602;47.542;19.090;2023-03-20T20:12:25;11.63;;;6.57;;
75922;SDS011;64602;47.542;19.090;2023-03-20T20:17:28;10.60;;;6.70;;
75922;SDS011;64602;47.542;19.090;2023-03-20T20:22:30;11.70;;;6.75;;
75922;SDS011;64602;47.542;19.090;2023-03-20T20:27:32;9.33;;;6.80;;
75922;SDS011;64602;47.542;19.090;2023-03-20T20:32:35;14.27;;;6.93;;
75922;SDS011;64602;47.542;19.090;2023-03-20T20:37:39;9.60;;;6.82;;
75922;SDS011;64602;47.542;19.090;2023-03-20T20:43:02;11.23;;;6.67;;
75922;SDS011;64602;47.542;19.090;2023-03-20T20:48:11;9.80;;;6.43;;
75922;SDS011;64602;47.542;19.090;2023-03-20T20:53:13;12.23;;;6.97;;
75922;SDS011;64602;47.542;19.090;2023-03-20T20:58:16;12.37;;;7.43;;
75922;SDS011;64602;47.542;19.090;2023-03-20T21:03:18;10.87;;;6.67;;
75922;SDS011;64602;47.542;19.090;2023-03-20T21:08:20;11.75;;;7.20;;
